Terminal Aerodrome Forecast
Issued by NWS Cleveland, OH

Home | Current Version | Previous Version | Graphics & Text | Print | Product List | Glossary Off
Versions: 1 2 3 4 5 6 7 8 9 10 11 12 13 14 15 16 17 18 19 20 21 22 23 24 25 26 27 28 29

000
FTUS41 KCLE 301739
TAFCLE
TAF
KCLE 301739Z 3018/0124 19018G30KT P6SM BKN050
     FM302300 19015KT P6SM BKN100
     FM011100 21015G30KT 5SM SHRA VCTS OVC040CB
     FM011500 21020G32KT P6SM BKN040=

USA.gov is the U.S. government's official web portal to all federal, state and local government web resources and services.